createdAt,value
2023-03-28T00:01:06.592Z,9.54
2023-03-28T00:03:36.480Z,9.20
2023-03-28T00:06:09.567Z,9.51
2023-03-28T00:08:39.462Z,9.53
2023-03-28T00:11:08.903Z,9.44
2023-03-28T00:13:36.427Z,9.62
2023-03-28T00:16:05.810Z,9.42
2023-03-28T00:18:37.517Z,9.47
2023-03-28T00:21:04.237Z,9.44
2023-03-28T00:23:31.132Z,9.59
2023-03-28T00:25:57.801Z,9.35
2023-03-28T00:28:24.472Z,9.49
2023-03-28T00:30:51.053Z,9.44
2023-03-28T00:33:18.444Z,9.29
2023-03-28T00:35:44.976Z,9.14
2023-03-28T00:38:13.862Z,9.26
2023-03-28T00:40:40.553Z,9.15
2023-03-28T00:43:07.342Z,9.09
2023-03-28T00:45:33.968Z,9.17
2023-03-28T00:48:05.300Z,9.05
2023-03-28T00:50:38.743Z,9.18
2023-03-28T00:53:16.756Z,9.22
2023-03-28T00:55:53.318Z,9.12
2023-03-28T00:58:26.777Z,9.08
2023-03-28T01:00:57.325Z,9.03
2023-03-28T01:03:27.933Z,8.90
2023-03-28T01:05:55.409Z,8.82
2023-03-28T01:08:30.466Z,8.97
2023-03-28T01:10:57.085Z,8.74
2023-03-28T01:13:31.352Z,8.76
2023-03-28T01:15:59.567Z,8.75
2023-03-28T01:18:26.506Z,8.93
2023-03-28T01:21:05.204Z,8.85
2023-03-28T01:23:52.804Z,8.87
2023-03-28T01:26:49.116Z,9.00
2023-03-28T01:29:45.784Z,8.86
2023-03-28T01:32:46.717Z,9.04
2023-03-28T01:35:37.066Z,9.02
2023-03-28T01:38:35.839Z,9.22
2023-03-28T01:41:20.526Z,9.24
2023-03-28T01:44:06.164Z,9.28
2023-03-28T01:46:39.004Z,9.34
2023-03-28T01:49:21.895Z,9.43
2023-03-28T01:51:57.343Z,9.19
2023-03-28T01:54:30.124Z,9.13
2023-03-28T01:57:10.488Z,8.93
2023-03-28T01:59:48.434Z,8.94
2023-03-28T02:02:45.862Z,8.84
2023-03-28T02:05:34.507Z,8.91
2023-03-28T02:08:04.451Z,9.00
2023-03-28T02:10:41.296Z,8.74
2023-03-28T02:13:34.063Z,9.02
2023-03-28T02:16:23.057Z,8.99
2023-03-28T02:19:09.622Z,9.04
2023-03-28T02:22:11.709Z,8.92
2023-03-28T02:24:57.760Z,9.07
2023-03-28T02:27:36.820Z,8.56
2023-03-28T02:30:21.608Z,8.28
2023-03-28T02:32:50.543Z,8.33
2023-03-28T02:35:24.917Z,8.31
2023-03-28T02:38:11.322Z,8.30
2023-03-28T02:40:54.189Z,8.21
2023-03-28T02:43:31.165Z,8.32
2023-03-28T02:46:14.741Z,8.37
2023-03-28T02:48:48.512Z,8.31
2023-03-28T02:51:46.325Z,8.22
2023-03-28T02:54:41.850Z,8.33
2023-03-28T02:57:33.531Z,8.24
2023-03-28T03:00:12.000Z,8.37
2023-03-28T03:02:40.491Z,8.38
2023-03-28T03:05:07.516Z,8.31
2023-03-28T03:07:34.043Z,8.21
2023-03-28T03:10:01.252Z,8.26
2023-03-28T03:12:30.371Z,8.34
2023-03-28T03:15:01.140Z,8.19
2023-03-28T03:17:47.857Z,8.21
2023-03-28T03:20:15.790Z,8.24
2023-03-28T03:22:42.340Z,8.07
2023-03-28T03:25:09.457Z,8.30
2023-03-28T03:27:46.873Z,8.29
2023-03-28T03:30:13.925Z,8.16
2023-03-28T03:33:00.860Z,8.25
2023-03-28T03:35:33.446Z,8.25
2023-03-28T03:38:04.243Z,8.03
2023-03-28T03:40:30.876Z,8.06
2023-03-28T03:42:57.936Z,7.98
2023-03-28T03:45:24.655Z,7.98
2023-03-28T03:47:51.312Z,8.21
2023-03-28T03:50:17.922Z,8.09
2023-03-28T03:52:44.470Z,8.26
2023-03-28T03:55:11.590Z,8.14
2023-03-28T03:57:40.166Z,8.17
2023-03-28T04:00:11.815Z,7.91
2023-03-28T04:02:48.243Z,7.89
2023-03-28T04:05:21.094Z,7.89
2023-03-28T04:08:01.604Z,7.95
2023-03-28T04:10:33.411Z,7.93
2023-03-28T04:13:00.249Z,8.10
2023-03-28T04:15:26.954Z,8.00
2023-03-28T04:17:59.746Z,7.84
2023-03-28T04:20:29.683Z,7.86
2023-03-28T04:23:05.696Z,7.96
2023-03-28T04:25:32.966Z,8.07
2023-03-28T04:28:04.650Z,7.97
2023-03-28T04:30:38.158Z,7.89
2023-03-28T04:33:28.445Z,8.14
2023-03-28T04:36:02.377Z,8.03
2023-03-28T04:38:36.064Z,7.97
2023-03-28T04:41:20.847Z,7.67
2023-03-28T04:44:09.888Z,7.84
2023-03-28T04:46:43.587Z,7.72
2023-03-28T04:49:13.148Z,7.89
2023-03-28T04:51:39.857Z,7.95
2023-03-28T04:54:06.705Z,8.07
2023-03-28T04:57:02.540Z,8.13
2023-03-28T04:59:37.868Z,8.19
2023-03-28T05:02:04.465Z,8.27
2023-03-28T05:04:42.427Z,8.32
2023-03-28T05:07:09.414Z,8.11
2023-03-28T05:09:36.240Z,8.14
2023-03-28T05:12:03.260Z,8.30
2023-03-28T05:14:32.886Z,8.19
2023-03-28T05:17:11.629Z,8.28
2023-03-28T05:19:52.026Z,8.29
2023-03-28T05:22:21.810Z,8.33
2023-03-28T05:24:48.398Z,8.51
2023-03-28T05:27:20.156Z,8.48
2023-03-28T05:29:47.578Z,8.55
2023-03-28T05:32:14.608Z,8.33
2023-03-28T05:34:41.828Z,8.15
2023-03-28T05:37:09.390Z,8.12
2023-03-28T05:40:02.483Z,8.39
2023-03-28T05:42:31.205Z,8.33
2023-03-28T05:44:57.760Z,8.50
2023-03-28T05:47:38.353Z,8.64
2023-03-28T05:50:05.432Z,9.08
2023-03-28T05:52:31.919Z,8.92
2023-03-28T05:54:58.559Z,9.21
2023-03-28T05:57:25.281Z,9.09
2023-03-28T05:59:53.776Z,8.93
2023-03-28T06:02:23.023Z,8.92
2023-03-28T06:04:53.838Z,10.74
2023-03-28T06:07:31.517Z,12.43
2023-03-28T06:10:08.389Z,13.83
2023-03-28T06:12:36.624Z,14.85
2023-03-28T06:15:04.513Z,14.72
2023-03-28T06:17:35.470Z,15.32
2023-03-28T06:20:02.268Z,15.36
2023-03-28T06:22:29.839Z,15.93
2023-03-28T06:25:00.880Z,17.93
2023-03-28T06:27:31.914Z,18.41
2023-03-28T06:29:59.985Z,19.27
2023-03-28T06:32:28.421Z,20.29
2023-03-28T06:34:54.973Z,21.42
2023-03-28T06:37:23.537Z,22.56
2023-03-28T06:39:59.969Z,22.75
2023-03-28T06:42:27.171Z,21.87
2023-03-28T06:44:59.771Z,21.62
2023-03-28T06:47:39.305Z,21.73
2023-03-28T06:50:07.793Z,23.09
2023-03-28T06:52:44.180Z,23.66
2023-03-28T06:55:11.304Z,23.96
2023-03-28T06:57:37.998Z,24.53
2023-03-28T07:00:34.507Z,24.98
2023-03-28T07:03:23.912Z,25.70
2023-03-28T07:05:50.710Z,25.93
2023-03-28T07:08:17.406Z,24.58
2023-03-28T07:10:43.925Z,24.29
2023-03-28T07:13:12.251Z,24.37
2023-03-28T07:15:48.487Z,24.43
2023-03-28T07:18:15.461Z,25.47
2023-03-28T07:20:43.050Z,25.36
2023-03-28T07:23:11.974Z,25.60
2023-03-28T07:25:39.113Z,25.54
2023-03-28T07:28:05.862Z,25.63
2023-03-28T07:30:33.552Z,25.87
2023-03-28T07:33:12.463Z,23.50
2023-03-28T07:35:43.827Z,22.66
2023-03-28T07:38:13.036Z,23.50
2023-03-28T07:40:48.985Z,24.88
2023-03-28T07:43:15.645Z,25.85
2023-03-28T07:45:42.182Z,25.81
2023-03-28T07:48:08.758Z,24.97
2023-03-28T07:50:36.557Z,25.22
2023-03-28T07:53:03.094Z,24.18
2023-03-28T07:55:44.889Z,24.01
2023-03-28T07:58:21.284Z,23.56
2023-03-28T08:00:48.037Z,24.13
2023-03-28T08:03:33.789Z,24.73
2023-03-28T08:06:02.786Z,25.31
2023-03-28T08:08:29.952Z,24.94
2023-03-28T08:11:28.940Z,24.33
2023-03-28T08:13:55.581Z,25.06
2023-03-28T08:16:24.839Z,24.43
2023-03-28T08:19:03.534Z,25.14
2023-03-28T08:21:42.688Z,25.80
2023-03-28T08:24:12.837Z,25.39
2023-03-28T08:26:54.131Z,25.79
2023-03-28T08:29:20.744Z,25.96
2023-03-28T08:31:48.056Z,24.72
2023-03-28T08:34:15.704Z,24.41
2023-03-28T08:36:43.296Z,25.01
2023-03-28T08:39:21.933Z,25.09
2023-03-28T08:42:10.553Z,25.76
2023-03-28T08:45:01.793Z,24.72
2023-03-28T08:47:33.550Z,24.13
2023-03-28T08:50:09.728Z,22.52
2023-03-28T08:52:38.541Z,21.97
2023-03-28T08:55:11.354Z,22.85
2023-03-28T08:57:38.935Z,23.17
2023-03-28T09:00:09.887Z,22.85
2023-03-28T09:02:38.443Z,21.71
2023-03-28T09:05:21.997Z,20.33
2023-03-28T09:08:19.262Z,21.19
2023-03-28T09:11:10.201Z,21.54
2023-03-28T09:13:57.709Z,22.38
2023-03-28T09:16:55.491Z,22.10
2023-03-28T09:19:46.886Z,22.26
2023-03-28T09:22:40.202Z,20.57
2023-03-28T09:25:32.598Z,19.29
2023-03-28T09:28:12.730Z,19.86
2023-03-28T09:30:43.821Z,19.60
2023-03-28T09:33:18.430Z,19.21
2023-03-28T09:35:47.224Z,18.91
2023-03-28T09:38:24.879Z,19.35
2023-03-28T09:40:54.637Z,19.08
2023-03-28T09:43:53.999Z,19.10
2023-03-28T09:46:53.795Z,19.30
2023-03-28T09:49:24.854Z,18.94
2023-03-28T09:51:58.575Z,18.54
2023-03-28T09:54:31.212Z,18.10
2023-03-28T09:57:03.432Z,18.37
2023-03-28T09:59:57.585Z,17.56
2023-03-28T10:02:30.442Z,16.72
2023-03-28T10:05:01.181Z,17.07
2023-03-28T10:07:45.026Z,17.44
2023-03-28T10:10:30.786Z,17.11
2023-03-28T10:13:04.838Z,17.20
2023-03-28T10:15:40.119Z,16.91
2023-03-28T10:18:22.428Z,16.91
2023-03-28T10:21:11.781Z,17.07
2023-03-28T10:23:41.487Z,16.72
2023-03-28T10:26:09.786Z,16.66
2023-03-28T10:28:37.440Z,16.53
2023-03-28T10:31:04.832Z,16.89
2023-03-28T10:33:37.452Z,17.32
2023-03-28T10:36:32.928Z,17.60
2023-03-28T10:39:23.778Z,17.42
2023-03-28T10:42:11.032Z,17.38
2023-03-28T10:45:00.197Z,17.26
2023-03-28T10:47:29.491Z,17.55
2023-03-28T10:50:21.430Z,17.93
2023-03-28T10:53:03.196Z,18.29
2023-03-28T10:55:58.767Z,18.46
2023-03-28T10:59:06.518Z,18.71
2023-03-28T11:01:43.835Z,18.31
2023-03-28T11:04:16.849Z,18.25
2023-03-28T11:06:51.610Z,18.73
2023-03-28T11:09:33.851Z,18.54
2023-03-28T11:12:40.936Z,18.83
2023-03-28T11:15:36.822Z,18.83
2023-03-28T11:18:45.796Z,19.04
2023-03-28T11:21:49.621Z,18.53
2023-03-28T11:24:27.861Z,18.21
2023-03-28T11:27:25.831Z,17.13
2023-03-28T11:30:06.684Z,17.69
2023-03-28T11:32:44.198Z,17.47
2023-03-28T11:38:04.521Z,17.16
2023-03-28T11:40:45.906Z,17.30
2023-03-28T11:43:28.246Z,17.65
2023-03-28T11:45:59.902Z,18.14
2023-03-28T11:48:32.264Z,18.28
2023-03-28T11:51:14.747Z,18.09
2023-03-28T11:54:16.801Z,17.40
2023-03-28T11:57:01.837Z,17.33
2023-03-28T11:59:40.464Z,17.85
2023-03-28T12:02:30.248Z,17.57
2023-03-28T12:05:16.607Z,17.34
2023-03-28T12:07:50.496Z,17.10
2023-03-28T12:10:36.403Z,17.76
2023-03-28T12:13:15.219Z,18.23
2023-03-28T12:15:58.275Z,18.62
2023-03-28T12:18:34.417Z,19.16
2023-03-28T12:21:11.710Z,18.62
2023-03-28T12:23:55.788Z,18.43
2023-03-28T12:27:07.987Z,18.22
2023-03-28T12:29:44.129Z,18.86
2023-03-28T12:32:44.480Z,19.56
2023-03-28T12:35:22.818Z,20.18
2023-03-28T12:38:22.723Z,20.43
2023-03-28T12:41:05.939Z,20.25
2023-03-28T12:43:49.691Z,19.09
2023-03-28T12:46:25.985Z,18.62
2023-03-28T12:49:02.467Z,19.13
2023-03-28T12:51:38.794Z,19.02
2023-03-28T12:54:15.689Z,18.87
2023-03-28T12:57:07.130Z,19.33
2023-03-28T12:59:40.063Z,19.52
2023-03-28T13:02:24.367Z,20.00
2023-03-28T13:05:13.429Z,19.29
2023-03-28T13:07:52.626Z,20.03
2023-03-28T13:10:29.732Z,19.83
2023-03-28T13:13:13.398Z,19.46
2023-03-28T13:16:03.097Z,20.83
2023-03-28T13:18:31.999Z,21.36
2023-03-28T13:21:00.410Z,20.85
2023-03-28T13:23:30.484Z,21.38
2023-03-28T13:25:59.122Z,22.05
2023-03-28T13:28:59.163Z,21.39
2023-03-28T13:31:26.505Z,21.77
2023-03-28T13:33:58.338Z,21.65
2023-03-28T13:36:27.622Z,22.07
2023-03-28T13:39:09.717Z,22.58
2023-03-28T13:41:55.395Z,21.83
2023-03-28T13:44:30.963Z,22.02
2023-03-28T13:46:57.574Z,22.56
2023-03-28T13:49:48.386Z,22.99
2023-03-28T13:52:23.405Z,22.43
2023-03-28T13:54:54.386Z,21.80
2023-03-28T13:57:27.380Z,21.49
2023-03-28T14:00:00.917Z,21.35
2023-03-28T14:02:43.946Z,21.25
2023-03-28T14:05:15.544Z,21.24
2023-03-28T14:07:42.075Z,20.73
2023-03-28T14:10:35.970Z,20.38
2023-03-28T14:13:07.892Z,19.89
2023-03-28T14:15:36.429Z,19.47
2023-03-28T14:18:03.698Z,20.05
2023-03-28T14:20:32.683Z,20.45
2023-03-28T14:23:01.293Z,20.83
2023-03-28T14:25:28.661Z,20.93
2023-03-28T14:27:56.392Z,21.24
2023-03-28T14:30:32.074Z,20.38
2023-03-28T14:33:01.313Z,20.17
2023-03-28T14:35:35.395Z,20.74
2023-03-28T14:38:06.702Z,20.93
2023-03-28T14:40:36.435Z,20.69
2023-03-28T14:43:06.262Z,20.64
2023-03-28T14:46:02.886Z,20.24
2023-03-28T14:48:29.775Z,19.38
2023-03-28T14:50:56.950Z,18.67
2023-03-28T14:53:25.384Z,18.29
2023-03-28T14:55:54.520Z,17.67
2023-03-28T14:58:24.528Z,17.03
2023-03-28T15:00:58.247Z,16.99
2023-03-28T15:03:33.939Z,16.33
2023-03-28T15:06:00.973Z,16.43
2023-03-28T15:08:34.626Z,15.90
2023-03-28T15:11:03.947Z,15.55
2023-03-28T15:13:33.854Z,15.30
2023-03-28T15:16:00.636Z,15.25
2023-03-28T15:18:33.602Z,15.28
2023-03-28T15:21:02.010Z,15.33
2023-03-28T15:23:35.076Z,15.53
2023-03-28T15:26:09.539Z,15.46
2023-03-28T15:28:36.117Z,15.33
2023-03-28T15:31:04.027Z,15.28
2023-03-28T15:33:34.278Z,15.42
2023-03-28T15:36:08.534Z,15.18
2023-03-28T15:38:40.467Z,15.05
2023-03-28T15:41:23.528Z,14.77
2023-03-28T15:43:52.674Z,14.70
2023-03-28T15:46:21.394Z,14.75
2023-03-28T15:48:48.902Z,14.64
2023-03-28T15:51:17.694Z,14.38
2023-03-28T15:53:48.411Z,14.42
2023-03-28T15:56:28.662Z,14.42
2023-03-28T15:59:00.398Z,14.33
2023-03-28T16:01:29.482Z,14.27
2023-03-28T16:04:24.746Z,14.36
2023-03-28T16:07:12.407Z,14.39
2023-03-28T16:09:43.019Z,14.31
2023-03-28T16:12:14.347Z,14.39
2023-03-28T16:14:46.749Z,14.44
2023-03-28T16:17:25.084Z,14.44
2023-03-28T16:20:02.319Z,14.38
2023-03-28T16:22:29.125Z,14.51
2023-03-28T16:24:55.645Z,14.61
2023-03-28T16:27:22.363Z,14.63
2023-03-28T16:29:49.142Z,14.60
2023-03-28T16:32:16.420Z,14.68
2023-03-28T16:34:43.441Z,14.68
2023-03-28T16:37:10.498Z,14.54
2023-03-28T16:39:41.422Z,14.57
2023-03-28T16:42:07.961Z,14.56
2023-03-28T16:44:34.934Z,14.63
2023-03-28T16:47:02.431Z,14.57
2023-03-28T16:49:29.258Z,14.62
2023-03-28T16:51:56.276Z,14.62
2023-03-28T16:54:23.482Z,14.52
2023-03-28T16:56:50.294Z,14.55
2023-03-28T16:59:16.831Z,14.57
2023-03-28T17:01:46.169Z,14.59
2023-03-28T17:04:12.893Z,14.58
2023-03-28T17:06:39.426Z,14.56
2023-03-28T17:09:06.771Z,14.53
2023-03-28T17:11:33.348Z,14.46
2023-03-28T17:13:59.976Z,14.38
2023-03-28T17:16:27.238Z,14.38
2023-03-28T17:18:53.842Z,14.38
2023-03-28T17:21:20.797Z,14.32
2023-03-28T17:23:49.021Z,14.32
2023-03-28T17:26:16.221Z,14.19
2023-03-28T17:28:43.477Z,14.21
2023-03-28T17:31:13.617Z,14.23
2023-03-28T17:33:40.670Z,14.17
2023-03-28T17:36:23.271Z,14.25
2023-03-28T17:38:51.345Z,14.15
2023-03-28T17:41:18.352Z,14.11
2023-03-28T17:43:44.922Z,14.10
2023-03-28T17:46:12.798Z,14.05
2023-03-28T17:48:40.185Z,14.01
2023-03-28T17:51:07.724Z,13.95
2023-03-28T17:53:34.354Z,13.91
2023-03-28T17:56:01.705Z,13.78
2023-03-28T17:58:28.640Z,13.69
2023-03-28T18:00:55.187Z,13.62
2023-03-28T18:03:22.570Z,13.51
2023-03-28T18:06:15.231Z,13.45
2023-03-28T18:08:44.601Z,13.36
2023-03-28T18:11:14.402Z,13.33
2023-03-28T18:13:41.463Z,13.26
2023-03-28T18:16:10.881Z,13.25
2023-03-28T18:18:38.360Z,13.28
2023-03-28T18:21:07.497Z,13.27
2023-03-28T18:23:34.882Z,13.20
2023-03-28T18:26:01.686Z,13.19
2023-03-28T18:28:28.407Z,13.16
2023-03-28T18:30:54.976Z,13.11
2023-03-28T18:33:22.123Z,13.05
2023-03-28T18:35:49.028Z,12.97
2023-03-28T18:38:15.907Z,12.97
2023-03-28T18:40:42.533Z,12.94
2023-03-28T18:43:09.527Z,12.89
2023-03-28T18:45:36.384Z,12.88
2023-03-28T18:48:03.514Z,12.86
2023-03-28T18:50:30.127Z,12.82
2023-03-28T18:52:57.419Z,12.78
2023-03-28T18:55:24.186Z,12.75
2023-03-28T18:57:50.700Z,12.71
2023-03-28T19:00:19.041Z,12.68
2023-03-28T19:02:46.861Z,12.65
2023-03-28T19:05:15.384Z,12.59
2023-03-28T19:07:42.926Z,12.52
2023-03-28T19:10:11.710Z,12.48
2023-03-28T19:12:38.305Z,12.46
2023-03-28T19:15:05.944Z,12.45
2023-03-28T19:17:36.380Z,12.48
2023-03-28T19:20:07.871Z,12.42
2023-03-28T19:22:35.156Z,12.43
2023-03-28T19:25:01.831Z,12.39
2023-03-28T19:27:28.343Z,12.38
2023-03-28T19:29:55.030Z,12.34
2023-03-28T19:32:21.545Z,12.34
2023-03-28T19:34:48.060Z,12.32
2023-03-28T19:37:14.571Z,12.29
2023-03-28T19:39:41.130Z,12.24
2023-03-28T19:42:07.597Z,12.29
2023-03-28T19:44:34.122Z,12.30
2023-03-28T19:47:00.795Z,12.28
2023-03-28T19:49:27.375Z,12.26
2023-03-28T19:51:54.484Z,12.21
2023-03-28T19:54:21.481Z,12.16
2023-03-28T19:56:48.669Z,12.14
2023-03-28T19:59:15.195Z,12.08
2023-03-28T20:01:41.823Z,12.01
2023-03-28T20:04:09.621Z,11.98
2023-03-28T20:06:36.662Z,11.93
2023-03-28T20:09:03.538Z,11.88
2023-03-28T20:11:30.106Z,11.82
2023-03-28T20:13:57.228Z,11.79
2023-03-28T20:16:23.799Z,11.76
2023-03-28T20:18:50.311Z,11.74
2023-03-28T20:21:16.858Z,11.72
2023-03-28T20:23:43.340Z,11.70
2023-03-28T20:26:18.673Z,11.77
2023-03-28T20:28:49.717Z,11.68
2023-03-28T20:31:17.641Z,11.59
2023-03-28T20:33:44.947Z,11.56
2023-03-28T20:36:11.499Z,11.54
2023-03-28T20:38:38.563Z,11.50
2023-03-28T20:41:16.088Z,11.52
2023-03-28T20:43:46.961Z,11.42
2023-03-28T20:46:18.996Z,11.41
2023-03-28T20:48:47.004Z,11.35
2023-03-28T20:51:15.890Z,11.34
2023-03-28T20:53:44.385Z,11.29
2023-03-28T20:56:12.059Z,11.24
2023-03-28T20:58:39.212Z,11.19
2023-03-28T21:01:07.244Z,11.20
2023-03-28T21:03:46.507Z,11.13
2023-03-28T21:06:15.660Z,11.11
2023-03-28T21:08:45.695Z,11.06
2023-03-28T21:11:16.390Z,11.07
2023-03-28T21:13:42.955Z,11.03
2023-03-28T21:16:10.449Z,10.98
2023-03-28T21:18:40.160Z,10.97
2023-03-28T21:21:10.920Z,11.00
2023-03-28T21:23:38.946Z,10.99
2023-03-28T21:26:09.562Z,10.94
2023-03-28T21:28:36.571Z,10.96
2023-03-28T21:31:09.005Z,10.98
2023-03-28T21:33:36.723Z,10.94
2023-03-28T21:36:05.050Z,10.96
2023-03-28T21:38:31.558Z,10.95
2023-03-28T21:40:58.088Z,10.96
2023-03-28T21:43:24.665Z,10.96
2023-03-28T21:45:51.211Z,11.04
2023-03-28T21:48:17.787Z,11.05
2023-03-28T21:50:53.237Z,11.07
2023-03-28T21:53:20.759Z,10.97
2023-03-28T21:55:47.427Z,10.99
2023-03-28T21:58:13.971Z,11.00
2023-03-28T22:00:40.767Z,10.90
2023-03-28T22:03:07.652Z,10.85
2023-03-28T22:05:40.112Z,10.76
2023-03-28T22:08:08.862Z,10.77
2023-03-28T22:10:37.485Z,10.81
2023-03-28T22:13:06.677Z,10.78
2023-03-28T22:15:33.262Z,10.82
2023-03-28T22:17:59.838Z,10.78
2023-03-28T22:20:27.875Z,10.77
2023-03-28T22:22:55.039Z,10.83
2023-03-28T22:25:22.621Z,10.74
2023-03-28T22:27:49.275Z,10.54
2023-03-28T22:30:15.860Z,10.39
2023-03-28T22:32:42.564Z,10.32
2023-03-28T22:35:11.101Z,10.27
2023-03-28T22:37:38.137Z,10.31
2023-03-28T22:40:08.346Z,10.38
2023-03-28T22:42:34.839Z,10.23
2023-03-28T22:45:01.775Z,10.24
2023-03-28T22:47:30.252Z,10.39
2023-03-28T22:49:58.164Z,10.40
2023-03-28T22:52:26.187Z,10.43
2023-03-28T22:54:52.993Z,10.44
2023-03-28T22:57:19.660Z,10.43
2023-03-28T22:59:46.667Z,10.44
2023-03-28T23:02:13.270Z,10.58
2023-03-28T23:04:40.177Z,10.44
2023-03-28T23:07:06.988Z,10.48
2023-03-28T23:09:33.466Z,10.38
2023-03-28T23:11:59.999Z,10.31
2023-03-28T23:14:27.313Z,10.30
2023-03-28T23:16:54.097Z,10.28
2023-03-28T23:19:20.608Z,10.24
2023-03-28T23:21:48.377Z,10.24
2023-03-28T23:24:15.046Z,10.22
2023-03-28T23:26:41.545Z,10.18
2023-03-28T23:29:08.062Z,10.16
2023-03-28T23:31:34.603Z,10.12
2023-03-28T23:34:01.115Z,10.17
2023-03-28T23:36:30.184Z,10.10
2023-03-28T23:38:57.544Z,10.01
2023-03-28T23:41:24.022Z,9.92
2023-03-28T23:43:50.679Z,9.93
2023-03-28T23:46:17.256Z,9.93
2023-03-28T23:48:43.807Z,9.91
2023-03-28T23:51:10.452Z,9.82
2023-03-28T23:53:36.949Z,9.67
2023-03-28T23:56:03.817Z,9.66
2023-03-28T23:58:30.352Z,9.63
